createdAt,value
2023-05-14T00:01:04.631Z,58.84
2023-05-14T00:03:32.968Z,58.80
2023-05-14T00:06:01.154Z,58.93
2023-05-14T00:08:29.333Z,59.17
2023-05-14T00:10:57.191Z,59.22
2023-05-14T00:13:25.477Z,59.24
2023-05-14T00:15:53.672Z,59.33
2023-05-14T00:18:21.965Z,59.50
2023-05-14T00:20:55.082Z,59.64
2023-05-14T00:23:23.192Z,59.35
2023-05-14T00:25:51.048Z,59.43
2023-05-14T00:28:19.027Z,59.71
2023-05-14T00:30:47.302Z,59.84
2023-05-14T00:33:15.575Z,59.81
2023-05-14T00:35:43.747Z,59.76
2023-05-14T00:38:17.140Z,59.65
2023-05-14T00:40:50.244Z,59.73
2023-05-14T00:43:18.614Z,59.87
2023-05-14T00:45:46.689Z,59.85
2023-05-14T00:48:14.864Z,60.01
2023-05-14T00:50:42.937Z,60.03
2023-05-14T00:53:11.512Z,60.36
2023-05-14T00:55:39.481Z,60.39
2023-05-14T00:58:07.451Z,60.52
2023-05-14T01:00:35.343Z,60.60
2023-05-14T01:03:03.653Z,60.58
2023-05-14T01:05:31.884Z,60.67
2023-05-14T01:07:59.834Z,60.61
2023-05-14T01:10:27.815Z,60.63
2023-05-14T01:12:55.992Z,60.64
2023-05-14T01:15:24.162Z,60.65
2023-05-14T01:17:52.355Z,60.74
2023-05-14T01:20:20.310Z,60.61
2023-05-14T01:22:48.370Z,60.75
2023-05-14T01:25:16.541Z,60.63
2023-05-14T01:27:44.620Z,60.74
2023-05-14T01:30:12.813Z,60.73
2023-05-14T01:32:41.077Z,60.70
2023-05-14T01:35:09.138Z,60.77
2023-05-14T01:37:37.210Z,60.79
2023-05-14T01:40:05.278Z,61.10
2023-05-14T01:42:33.452Z,60.98
2023-05-14T01:45:01.728Z,61.00
2023-05-14T01:47:29.766Z,61.05
2023-05-14T01:49:57.782Z,61.13
2023-05-14T01:52:25.740Z,61.15
2023-05-14T01:54:53.916Z,61.43
2023-05-14T01:57:21.981Z,61.41
2023-05-14T01:59:50.052Z,61.47
2023-05-14T02:02:18.026Z,61.58
2023-05-14T02:04:46.719Z,61.76
2023-05-14T02:07:14.672Z,61.85
2023-05-14T02:09:42.745Z,61.90
2023-05-14T02:12:11.952Z,61.89
2023-05-14T02:14:39.917Z,61.94
2023-05-14T02:17:08.086Z,61.75
2023-05-14T02:19:36.177Z,61.69
2023-05-14T02:22:04.233Z,61.63
2023-05-14T02:24:32.513Z,61.78
2023-05-14T02:27:01.540Z,61.72
2023-05-14T02:29:29.632Z,61.72
2023-05-14T02:31:57.733Z,61.55
2023-05-14T02:34:26.433Z,61.64
2023-05-14T02:36:54.502Z,61.76
2023-05-14T02:39:22.582Z,61.89
2023-05-14T02:41:50.955Z,61.97
2023-05-14T02:44:19.048Z,62.06
2023-05-14T02:46:47.353Z,62.33
2023-05-14T02:49:15.482Z,62.48
2023-05-14T02:51:43.361Z,62.60
2023-05-14T02:54:11.419Z,62.56
2023-05-14T02:56:39.800Z,62.62
2023-05-14T02:59:07.770Z,62.57
2023-05-14T03:01:36.047Z,62.59
2023-05-14T03:04:04.548Z,62.70
2023-05-14T03:06:32.700Z,62.79
2023-05-14T03:09:00.871Z,63.06
2023-05-14T03:11:28.949Z,63.12
2023-05-14T03:13:57.013Z,63.02
2023-05-14T03:16:25.151Z,63.01
2023-05-14T03:18:53.190Z,63.12
2023-05-14T03:21:21.127Z,63.34
2023-05-14T03:23:49.310Z,63.33
2023-05-14T03:26:17.482Z,63.31
2023-05-14T03:28:45.446Z,63.30
2023-05-14T03:31:13.538Z,63.48
2023-05-14T03:33:41.585Z,63.50
2023-05-14T03:36:09.661Z,63.42
2023-05-14T03:38:37.836Z,63.49
2023-05-14T03:41:06.111Z,63.43
2023-05-14T03:43:34.082Z,63.39
2023-05-14T03:46:02.458Z,63.48
2023-05-14T03:48:30.937Z,63.41
2023-05-14T03:50:59.115Z,63.42
2023-05-14T03:53:27.315Z,63.50
2023-05-14T03:55:55.257Z,63.39
2023-05-14T03:58:23.321Z,63.50
2023-05-14T04:00:51.201Z,63.61
2023-05-14T04:03:19.562Z,63.62
2023-05-14T04:05:47.546Z,63.59
2023-05-14T04:08:15.504Z,63.53
2023-05-14T04:10:43.680Z,63.56
2023-05-14T04:13:11.673Z,63.61
2023-05-14T04:15:40.474Z,63.76
2023-05-14T04:18:08.427Z,63.80
2023-05-14T04:20:37.192Z,63.87
2023-05-14T04:23:05.368Z,63.76
2023-05-14T04:25:33.484Z,63.93
2023-05-14T04:28:01.414Z,63.93
2023-05-14T04:30:29.995Z,63.99
2023-05-14T04:32:58.087Z,63.71
2023-05-14T04:35:26.236Z,63.87
2023-05-14T04:37:54.417Z,63.92
2023-05-14T04:40:23.267Z,63.88
2023-05-14T04:42:51.466Z,63.98
2023-05-14T04:45:20.260Z,63.94
2023-05-14T04:47:48.504Z,64.10
2023-05-14T04:50:16.912Z,63.72
2023-05-14T04:52:44.885Z,63.66
2023-05-14T04:55:13.061Z,63.73
2023-05-14T04:57:41.239Z,63.84
2023-05-14T05:00:10.343Z,63.76
2023-05-14T05:02:38.462Z,63.47
2023-05-14T05:05:06.584Z,63.58
2023-05-14T05:07:34.646Z,63.68
2023-05-14T05:10:02.926Z,63.51
2023-05-14T05:12:31.098Z,63.45
2023-05-14T05:14:59.174Z,63.22
2023-05-14T05:17:27.260Z,62.88
2023-05-14T05:19:55.621Z,62.86
2023-05-14T05:22:23.592Z,62.78
2023-05-14T05:24:51.759Z,62.95
2023-05-14T05:27:22.296Z,62.69
2023-05-14T05:29:50.261Z,62.89
2023-05-14T05:32:17.925Z,62.81
2023-05-14T05:34:45.756Z,62.69
2023-05-14T05:37:15.011Z,62.63
2023-05-14T05:39:42.750Z,62.59
2023-05-14T05:42:10.720Z,62.40
2023-05-14T05:44:38.389Z,62.57
2023-05-14T05:47:06.285Z,62.52
2023-05-14T05:49:34.131Z,62.35
2023-05-14T05:52:01.975Z,62.42
2023-05-14T05:54:29.644Z,62.24
2023-05-14T05:56:57.510Z,62.22
2023-05-14T05:59:25.173Z,62.25
2023-05-14T06:01:52.901Z,62.12
2023-05-14T06:04:20.802Z,62.03
2023-05-14T06:06:49.598Z,62.02
2023-05-14T06:09:17.679Z,61.89
2023-05-14T06:11:45.427Z,61.33
2023-05-14T06:14:13.095Z,61.27
2023-05-14T06:16:40.766Z,61.11
2023-05-14T06:19:08.893Z,61.14
2023-05-14T06:21:36.705Z,60.98
2023-05-14T06:24:04.465Z,60.87
2023-05-14T06:26:32.322Z,60.89
2023-05-14T06:28:59.979Z,61.04
2023-05-14T06:31:27.679Z,61.03
2023-05-14T06:33:55.407Z,60.82
2023-05-14T06:36:23.089Z,60.86
2023-05-14T06:38:50.832Z,60.98
2023-05-14T06:41:18.601Z,60.71
2023-05-14T06:43:46.257Z,60.48
2023-05-14T06:46:13.915Z,60.27
2023-05-14T06:48:41.611Z,60.53
2023-05-14T06:51:09.450Z,60.64
2023-05-14T06:53:37.318Z,60.71
2023-05-14T06:56:04.974Z,60.31
2023-05-14T06:58:32.755Z,60.16
2023-05-14T07:01:00.572Z,59.79
2023-05-14T07:03:29.295Z,60.02
2023-05-14T07:05:56.965Z,59.83
2023-05-14T07:08:24.741Z,59.80
2023-05-14T07:10:52.491Z,59.50
2023-05-14T07:13:20.152Z,59.41
2023-05-14T07:15:47.806Z,59.23
2023-05-14T07:18:15.503Z,59.15
2023-05-14T07:20:43.233Z,58.92
2023-05-14T07:23:11.002Z,58.74
2023-05-14T07:25:38.660Z,58.33
2023-05-14T07:28:06.422Z,58.19
2023-05-14T07:30:34.082Z,58.20
2023-05-14T07:33:01.770Z,57.77
2023-05-14T07:35:29.616Z,57.47
2023-05-14T07:37:57.274Z,57.54
2023-05-14T07:40:27.759Z,57.42
2023-05-14T07:42:55.470Z,57.33
2023-05-14T07:45:23.128Z,57.44
2023-05-14T07:47:52.358Z,57.23
2023-05-14T07:50:20.413Z,56.89
2023-05-14T07:52:48.062Z,57.00
2023-05-14T07:55:15.736Z,56.90
2023-05-14T07:57:43.499Z,56.56
2023-05-14T08:00:11.554Z,56.52
2023-05-14T08:02:39.402Z,56.03
2023-05-14T08:05:07.399Z,55.86
2023-05-14T08:07:35.175Z,56.24
2023-05-14T08:10:02.929Z,56.10
2023-05-14T08:12:30.701Z,56.27
2023-05-14T08:14:58.449Z,55.97
2023-05-14T08:17:26.361Z,55.73
2023-05-14T08:19:54.394Z,55.54
2023-05-14T08:22:22.057Z,55.76
2023-05-14T08:24:49.816Z,55.64
2023-05-14T08:27:17.496Z,55.30
2023-05-14T08:29:45.145Z,55.02
2023-05-14T08:32:22.917Z,54.98
2023-05-14T08:34:51.993Z,54.62
2023-05-14T08:37:19.900Z,54.38
2023-05-14T08:39:47.570Z,54.34
2023-05-14T08:42:15.229Z,54.02
2023-05-14T08:44:42.891Z,54.26
2023-05-14T08:47:10.550Z,53.89
2023-05-14T08:49:38.314Z,53.31
2023-05-14T08:52:05.934Z,53.12
2023-05-14T08:54:33.649Z,52.73
2023-05-14T08:57:01.298Z,52.64
2023-05-14T08:59:28.960Z,52.92
2023-05-14T09:01:56.843Z,52.05
2023-05-14T09:04:24.592Z,51.81
2023-05-14T09:06:52.258Z,51.47
2023-05-14T09:09:22.780Z,51.17
2023-05-14T09:11:50.549Z,50.96
2023-05-14T09:14:18.313Z,50.95
2023-05-14T09:16:46.056Z,50.69
2023-05-14T09:19:14.025Z,50.62
2023-05-14T09:21:41.910Z,50.71
2023-05-14T09:24:09.678Z,50.69
2023-05-14T09:26:37.439Z,50.54
2023-05-14T09:29:05.305Z,50.71
2023-05-14T09:31:33.007Z,51.20
2023-05-14T09:34:00.832Z,50.49
2023-05-14T09:36:28.704Z,50.46
2023-05-14T09:38:56.368Z,50.27
2023-05-14T09:41:24.654Z,50.56
2023-05-14T09:43:52.398Z,50.18
2023-05-14T09:46:20.086Z,50.34
2023-05-14T09:48:47.946Z,50.43
2023-05-14T09:51:16.104Z,50.32
2023-05-14T09:53:43.869Z,50.05
2023-05-14T09:56:11.645Z,50.28
2023-05-14T09:58:39.293Z,49.65
2023-05-14T10:01:07.534Z,49.52
2023-05-14T10:03:35.336Z,49.30
2023-05-14T10:06:02.997Z,49.59
2023-05-14T10:08:30.661Z,49.16
2023-05-14T10:10:58.320Z,49.32
2023-05-14T10:13:25.981Z,48.82
2023-05-14T10:15:53.747Z,48.35
2023-05-14T10:18:21.519Z,48.58
2023-05-14T10:20:49.278Z,48.80
2023-05-14T10:23:17.038Z,48.71
2023-05-14T10:25:44.700Z,47.95
2023-05-14T10:28:12.476Z,47.80
2023-05-14T10:30:40.229Z,47.63
2023-05-14T10:33:08.382Z,47.51
2023-05-14T10:35:36.373Z,47.45
2023-05-14T10:38:04.006Z,47.50
2023-05-14T10:40:31.696Z,47.61
2023-05-14T10:42:59.358Z,47.64
2023-05-14T10:45:27.121Z,47.12
2023-05-14T10:47:55.139Z,47.27
2023-05-14T10:50:23.848Z,47.24
2023-05-14T10:52:51.950Z,47.58
2023-05-14T10:55:19.624Z,47.58
2023-05-14T10:57:50.314Z,47.63
2023-05-14T11:00:18.435Z,47.78
2023-05-14T11:02:47.215Z,47.90
2023-05-14T11:05:16.035Z,47.77
2023-05-14T11:07:43.970Z,47.50
2023-05-14T11:10:11.761Z,47.57
2023-05-14T11:12:39.803Z,47.60
2023-05-14T11:15:07.677Z,47.20
2023-05-14T11:17:35.357Z,47.15
2023-05-14T11:20:03.268Z,47.27
2023-05-14T11:22:31.369Z,46.69
2023-05-14T11:24:59.354Z,46.22
2023-05-14T11:27:27.465Z,46.50
2023-05-14T11:29:56.302Z,46.20
2023-05-14T11:32:24.436Z,45.86
2023-05-14T11:34:52.788Z,45.67
2023-05-14T11:37:20.641Z,46.37
2023-05-14T11:39:49.120Z,46.08
2023-05-14T11:42:19.038Z,45.65
2023-05-14T11:44:47.413Z,45.10
2023-05-14T11:47:15.490Z,44.61
2023-05-14T11:49:43.555Z,44.12
2023-05-14T11:52:12.640Z,43.62
2023-05-14T11:54:40.834Z,43.94
2023-05-14T11:57:08.897Z,43.60
2023-05-14T11:59:36.977Z,43.30
2023-05-14T12:02:05.663Z,43.67
2023-05-14T12:04:34.200Z,44.27
2023-05-14T12:07:02.492Z,43.56
2023-05-14T12:09:30.359Z,43.64
2023-05-14T12:11:58.341Z,43.79
2023-05-14T12:14:26.501Z,43.40
2023-05-14T12:16:54.365Z,43.57
2023-05-14T12:19:24.319Z,44.09
2023-05-14T12:21:55.473Z,43.57
2023-05-14T12:24:26.644Z,43.13
2023-05-14T12:26:57.290Z,43.26
2023-05-14T12:29:28.273Z,43.07
2023-05-14T12:31:56.171Z,42.84
2023-05-14T12:34:25.857Z,43.20
2023-05-14T12:36:54.433Z,42.51
2023-05-14T12:39:22.607Z,42.37
2023-05-14T12:41:50.353Z,42.52
2023-05-14T12:44:18.413Z,41.92
2023-05-14T12:46:46.228Z,41.79
2023-05-14T12:49:14.045Z,42.09
2023-05-14T12:51:41.804Z,41.68
2023-05-14T12:54:11.334Z,41.72
2023-05-14T12:56:39.797Z,41.81
2023-05-14T12:59:07.972Z,41.96
2023-05-14T13:01:37.548Z,41.20
2023-05-14T13:04:06.405Z,40.92
2023-05-14T13:06:34.436Z,40.78
2023-05-14T13:09:02.824Z,40.59
2023-05-14T13:11:32.519Z,40.16
2023-05-14T13:14:03.673Z,40.10
2023-05-14T13:16:39.316Z,40.85
2023-05-14T13:19:14.326Z,40.56
2023-05-14T13:21:45.681Z,40.73
2023-05-14T13:24:15.517Z,40.17
2023-05-14T13:26:44.806Z,40.48
2023-05-14T13:29:13.086Z,40.54
2023-05-14T13:31:41.481Z,40.02
2023-05-14T13:34:10.458Z,40.19
2023-05-14T13:36:39.870Z,40.35
2023-05-14T13:39:07.647Z,40.44
2023-05-14T13:41:35.901Z,40.24
2023-05-14T13:44:03.663Z,39.95
2023-05-14T13:46:31.392Z,39.55
2023-05-14T13:48:59.297Z,39.62
2023-05-14T13:51:26.970Z,39.70
2023-05-14T13:56:27.204Z,39.32
2023-05-14T13:58:54.962Z,39.29
2023-05-14T14:01:23.507Z,38.90
2023-05-14T14:03:51.206Z,38.91
2023-05-14T14:06:19.177Z,38.78
2023-05-14T14:08:47.152Z,38.62
2023-05-14T14:11:15.015Z,37.95
2023-05-14T14:13:45.203Z,38.37
2023-05-14T14:16:15.149Z,38.29
2023-05-14T14:18:43.755Z,38.59
2023-05-14T14:21:12.435Z,39.11
2023-05-14T14:23:40.358Z,39.48
2023-05-14T14:26:08.664Z,38.80
2023-05-14T14:28:36.841Z,38.93
2023-05-14T14:31:05.557Z,39.19
2023-05-14T14:33:34.187Z,39.33
2023-05-14T14:36:02.381Z,39.68
2023-05-14T14:38:33.232Z,39.31
2023-05-14T14:41:03.552Z,39.50
2023-05-14T14:43:32.029Z,39.41
2023-05-14T14:46:00.440Z,39.50
2023-05-14T14:48:29.092Z,39.24
2023-05-14T14:50:57.273Z,39.21
2023-05-14T14:53:25.553Z,39.29
2023-05-14T14:55:53.919Z,39.68
2023-05-14T14:58:22.197Z,39.71
2023-05-14T15:00:50.259Z,39.86
2023-05-14T15:03:19.534Z,39.73
2023-05-14T15:05:47.541Z,39.72
2023-05-14T15:08:15.722Z,39.84
2023-05-14T15:10:43.785Z,39.63
2023-05-14T15:13:12.063Z,39.52
2023-05-14T15:15:39.728Z,39.76
2023-05-14T15:18:07.544Z,39.87
2023-05-14T15:20:35.352Z,39.91
2023-05-14T15:23:03.462Z,39.83
2023-05-14T15:25:31.203Z,40.49
2023-05-14T15:27:58.955Z,40.03
2023-05-14T15:30:26.613Z,39.85
2023-05-14T15:32:54.434Z,39.82
2023-05-14T15:35:23.618Z,40.10
2023-05-14T15:37:51.863Z,40.48
2023-05-14T15:40:20.255Z,40.44
2023-05-14T15:42:48.403Z,40.39
2023-05-14T15:45:16.704Z,40.34
2023-05-14T15:47:45.897Z,40.17
2023-05-14T15:50:14.281Z,40.44
2023-05-14T15:52:42.532Z,40.45
2023-05-14T15:55:11.025Z,40.66
2023-05-14T15:57:39.397Z,40.26
2023-05-14T16:00:11.552Z,40.58
2023-05-14T16:02:40.374Z,40.77
2023-05-14T16:05:08.941Z,40.63
2023-05-14T16:07:37.909Z,40.69
2023-05-14T16:10:06.111Z,41.04
2023-05-14T16:12:33.973Z,41.00
2023-05-14T16:15:01.730Z,40.98
2023-05-14T16:17:30.659Z,40.92
2023-05-14T16:19:58.383Z,41.05
2023-05-14T16:22:26.256Z,40.85
2023-05-14T16:24:53.911Z,40.48
2023-05-14T16:27:22.191Z,40.73
2023-05-14T16:29:49.851Z,40.87
2023-05-14T16:32:17.785Z,40.89
2023-05-14T16:34:49.851Z,40.81
2023-05-14T16:37:17.856Z,40.81
2023-05-14T16:39:45.931Z,40.62
2023-05-14T16:42:13.593Z,40.50
2023-05-14T16:44:41.345Z,40.53
2023-05-14T16:47:09.006Z,40.79
2023-05-14T16:49:36.873Z,40.51
2023-05-14T16:52:04.543Z,40.35
2023-05-14T16:54:32.278Z,40.38
2023-05-14T16:57:00.671Z,40.48
2023-05-14T16:59:28.643Z,40.30
2023-05-14T17:01:56.522Z,40.16
2023-05-14T17:04:26.806Z,40.12
2023-05-14T17:06:55.109Z,40.08
2023-05-14T17:09:23.076Z,40.16
2023-05-14T17:11:51.049Z,40.11
2023-05-14T17:14:18.705Z,40.03
2023-05-14T17:16:46.370Z,40.15
2023-05-14T17:19:14.060Z,40.24
2023-05-14T17:21:41.797Z,39.98
2023-05-14T17:24:09.558Z,40.25
2023-05-14T17:26:38.051Z,40.07
2023-05-14T17:29:09.196Z,40.14
2023-05-14T17:31:36.975Z,40.22
2023-05-14T17:34:04.911Z,40.23
2023-05-14T17:36:32.986Z,40.13
2023-05-14T17:39:00.958Z,40.23
2023-05-14T17:41:29.336Z,40.06
2023-05-14T17:43:57.609Z,39.99
2023-05-14T17:46:25.513Z,40.05
2023-05-14T17:48:54.067Z,40.02
2023-05-14T17:51:22.962Z,40.00
2023-05-14T17:53:51.543Z,39.99
2023-05-14T17:56:20.237Z,40.00
2023-05-14T17:58:48.310Z,40.00
2023-05-14T18:01:16.533Z,40.06
2023-05-14T18:03:44.916Z,40.35
2023-05-14T18:06:13.359Z,40.36
2023-05-14T18:08:42.130Z,40.20
2023-05-14T18:11:10.421Z,40.14
2023-05-14T18:13:38.487Z,40.02
2023-05-14T18:16:06.664Z,39.98
2023-05-14T18:18:34.920Z,40.17
2023-05-14T18:21:03.827Z,40.37
2023-05-14T18:23:32.205Z,40.31
2023-05-14T18:26:00.790Z,40.36
2023-05-14T18:28:29.278Z,40.44
2023-05-14T18:30:57.653Z,40.66
2023-05-14T18:33:26.547Z,40.55
2023-05-14T18:35:54.612Z,40.65
2023-05-14T18:38:22.893Z,40.74
2023-05-14T18:40:50.754Z,40.74
2023-05-14T18:43:19.843Z,40.75
2023-05-14T18:45:48.399Z,40.62
2023-05-14T18:48:16.726Z,40.72
2023-05-14T18:50:44.385Z,40.79
2023-05-14T18:53:12.150Z,40.69
2023-05-14T18:55:39.907Z,40.90
2023-05-14T18:58:07.562Z,40.82
2023-05-14T19:00:35.324Z,40.88
2023-05-14T19:03:03.063Z,40.97
2023-05-14T19:05:31.175Z,41.12
2023-05-14T19:07:58.821Z,41.32
2023-05-14T19:10:26.483Z,41.42
2023-05-14T19:12:54.246Z,41.95
2023-05-14T19:15:22.236Z,42.26
2023-05-14T19:17:50.139Z,42.50
2023-05-14T19:20:17.851Z,42.92
2023-05-14T19:22:45.610Z,43.30
2023-05-14T19:25:13.276Z,43.66
2023-05-14T19:27:40.930Z,44.31
2023-05-14T19:30:08.716Z,44.91
2023-05-14T19:32:38.057Z,44.96
2023-05-14T19:35:05.996Z,45.29
2023-05-14T19:37:33.732Z,45.68
2023-05-14T19:40:01.388Z,45.99
2023-05-14T19:42:29.277Z,46.32
2023-05-14T19:44:57.023Z,46.93
2023-05-14T19:47:24.847Z,47.36
2023-05-14T19:49:52.760Z,47.77
2023-05-14T19:52:20.426Z,48.27
2023-05-14T19:54:48.183Z,48.80
2023-05-14T19:57:16.048Z,48.96
2023-05-14T19:59:44.595Z,49.15
2023-05-14T20:02:18.728Z,49.43
2023-05-14T20:04:47.637Z,50.20
2023-05-14T20:07:15.863Z,50.71
2023-05-14T20:09:43.685Z,51.16
2023-05-14T20:12:13.089Z,51.46
2023-05-14T20:14:41.557Z,51.84
2023-05-14T20:17:09.420Z,51.92
2023-05-14T20:19:37.292Z,52.43
2023-05-14T20:22:05.063Z,53.25
2023-05-14T20:24:33.240Z,53.37
2023-05-14T20:27:00.994Z,53.29
2023-05-14T20:29:28.760Z,53.90
2023-05-14T20:31:57.239Z,54.15
2023-05-14T20:34:25.104Z,53.73
2023-05-14T20:36:52.976Z,54.00
2023-05-14T20:39:20.948Z,54.01
2023-05-14T20:41:48.718Z,54.22
2023-05-14T20:44:16.837Z,54.58
2023-05-14T20:46:46.235Z,54.97
2023-05-14T20:49:14.254Z,55.03
2023-05-14T20:51:42.321Z,55.09
2023-05-14T20:54:09.986Z,55.76
2023-05-14T20:56:37.855Z,55.96
2023-05-14T20:59:05.515Z,56.28
2023-05-14T21:01:33.394Z,56.56
2023-05-14T21:04:01.336Z,56.79
2023-05-14T21:06:29.322Z,57.25
2023-05-14T21:08:57.085Z,57.38
2023-05-14T21:11:24.974Z,57.81
2023-05-14T21:13:52.936Z,58.19
2023-05-14T21:16:20.866Z,58.29
2023-05-14T21:18:48.810Z,58.77
2023-05-14T21:21:16.621Z,59.76
2023-05-14T21:23:44.386Z,60.52
2023-05-14T21:26:12.179Z,60.78
2023-05-14T21:28:39.924Z,61.18
2023-05-14T21:31:07.676Z,61.40
2023-05-14T21:33:35.442Z,61.61
2023-05-14T21:36:03.455Z,61.76
2023-05-14T21:38:32.710Z,61.89
2023-05-14T21:41:00.476Z,62.13
2023-05-14T21:43:28.142Z,62.63
2023-05-14T21:45:55.799Z,62.93
2023-05-14T21:48:23.700Z,63.23
2023-05-14T21:50:51.430Z,63.41
2023-05-14T21:53:19.209Z,63.61
2023-05-14T21:55:46.970Z,63.76
2023-05-14T21:58:14.825Z,63.80
2023-05-14T22:00:42.497Z,63.79
2023-05-14T22:03:10.249Z,63.69
2023-05-14T22:05:38.015Z,63.96
2023-05-14T22:08:06.189Z,64.08
2023-05-14T22:10:33.954Z,64.14
2023-05-14T22:13:01.617Z,64.24
2023-05-14T22:15:29.285Z,64.30
2023-05-14T22:17:57.325Z,64.59
2023-05-14T22:20:25.217Z,64.85
2023-05-14T22:22:53.085Z,64.81
2023-05-14T22:25:20.844Z,64.87
2023-05-14T22:27:48.541Z,64.84
2023-05-14T22:30:16.270Z,65.06
2023-05-14T22:32:44.246Z,65.26
2023-05-14T22:35:12.021Z,65.42
2023-05-14T22:37:39.671Z,65.50
2023-05-14T22:40:07.539Z,65.59
2023-05-14T22:42:35.191Z,65.79
2023-05-14T22:45:03.172Z,65.86
2023-05-14T22:47:31.295Z,65.89
2023-05-14T22:49:59.102Z,66.00
2023-05-14T22:52:26.764Z,66.03
2023-05-14T22:54:54.734Z,66.12
2023-05-14T22:57:22.702Z,66.23
2023-05-14T22:59:50.368Z,66.42
2023-05-14T23:02:18.027Z,66.49
2023-05-14T23:04:45.798Z,66.51
2023-05-14T23:07:13.553Z,66.50
2023-05-14T23:09:41.523Z,66.61
2023-05-14T23:12:09.705Z,66.66
2023-05-14T23:14:37.359Z,66.87
2023-05-14T23:17:05.022Z,66.85
2023-05-14T23:19:32.709Z,66.95
2023-05-14T23:22:00.554Z,67.16
2023-05-14T23:24:28.209Z,67.24
2023-05-14T23:26:56.080Z,67.17
2023-05-14T23:29:23.747Z,67.36
2023-05-14T23:31:51.424Z,67.37
2023-05-14T23:34:19.275Z,67.59
2023-05-14T23:36:46.928Z,67.74
2023-05-14T23:39:14.600Z,68.06
2023-05-14T23:41:42.251Z,68.01
2023-05-14T23:44:10.025Z,68.09
2023-05-14T23:46:37.692Z,68.16
2023-05-14T23:49:05.344Z,68.30
2023-05-14T23:51:33.111Z,68.36
2023-05-14T23:54:00.969Z,68.50
2023-05-14T23:56:29.407Z,68.68
2023-05-14T23:58:57.222Z,68.76
